Clinton, MS (39056)

8:02 AM CDT on July 29, 2015 (GMT -0500)
Countrywood | | Change Station
CLOSE
Current Station
Personal Weather Station
Location: Clinton, MS
Elevation: 338 ft
Nearby Weather Stations
Active Advisory: Heat Advisory

Elev 338 ft 32.32 °N, 90.34 °W | Updated 51 seconds ago

Clear
Clear
80.6 °F
Feels Like 86 °F
N
0.0
Wind Variable Wind from SW
Gusts 0.0 mph

Today
High -- | Low -- °F
--% Chance of Precip.
Yesterday
High -- | Low -- °F
Precip. -- in
6:13 AM 8:01 PM
Waxing Gibbous, 95% visible
Pressure 30.06 in
Visibility 6.0 miles
Clouds Clear
Heat Index 86 °F
Dew Point 75 °F
Humidity 83%
Rainfall 0.00 in
Snow Depth Not available.
UV 1.0 out of 12
Pollen 3.80 out of 12
Air Quality Not available.
Flu Activity Not available.
METAR KJVW 291255Z AUTO 00000KT 6SM HZ CLR 27/24 A3006 RMK AO2

More Conditions Fewer Conditions

Pressure 30.06 in
Visibility 6.0 miles
Clouds Clear
Heat Index 86 °F
Dew Point 75 °F
Humidity 83%
Rainfall 0.00 in
Snow Depth Not available.
UV 1.0 out of 12
Pollen 3.80 out of 12
Air Quality Not available.
Flu Activity Not available.
METAR KJVW 291255Z AUTO 00000KT 6SM HZ CLR 27/24 A3006 RMK AO2

More Conditions Fewer Conditions

10-Day Weather Forecast

×

Almanac

Astronomy

Jul. 29, 2015 Rise Set
Actual Time
Civil Twilight
Nautical Twilight
Astronomical Twilight
Moon
Length of Visible Light
Length of Day
Tomorrow will be .
, % of the Moon is Illuminated

Today's Extremes

State Highs State Lows

Community

WunderPhotos

Upload Photos

1,842,089 photos uploaded!

WunderBlogs® & News

Nearby

Air Quality

  Air Quality AQ Index Pollutant
Not available.

Snow Depth

Station Depth Elevation

Earthquake Activity

City Distance Mag. Time & Date
Minimum magnitude displayed is 2.5.

Coastal Water Temperatures

Place Temperature

Stations

Nearby Weather Stations

Station Location Temp. Windchill Dew Point Humidity Wind Precip. Elev Updated Type
                   
Heat Advisory
Statement as of 2:59 AM CDT on July 29, 2015

... Heat advisory remains in effect until 7 PM CDT this evening...

* temperatures... peaking from 96 to 99 degrees.

* Heat indices... peaking from 106 to 110 degrees.

* Impacts... increased risk of heat related illnesses including
heat exhaustion and heat stroke.

Precautionary/preparedness actions...

A heat advisory means that a period of hot temperatures is
expected. The combination of high temperatures and humidity will
create a situation in which heat illnesses are possible. Drink
plenty of fluids... stay in an air-conditioned room... stay out of the
sun... and check up on relatives and neighbors. Heat stroke is an
emergency... call 9 1 1.

Young children and pets should never be left unattended in
vehicles under any circumstances. This is especially true during
warm or hot weather when car interiors can reach lethal
temperatures in a matter of minutes.



Dl